Time;durP1;ratioP1;P1;durP2;ratioP2;P2;SDS_P1;SDS_P2;PMS_P1;PMS_P2;Temp;Humidity;BMP_temperature;BMP_pressure;BME280_temperature;BME280_humidity;BME280_pressure;Samples;Min_cycle;Max_cycle;Signal;HPM_P1;HPM_P2
2022/12/01 00:02:10;;;;;;;2.10;1.77;;;;;;;4.49;100.00;95133.38;4920858;29;20452;-85
2022/12/01 00:04:38;;;;;;;1.90;1.80;;;;;;;4.43;100.00;95131.13;4918378;29;20448;-86
2022/12/01 00:07:05;;;;;;;2.80;1.77;;;;;;;4.52;100.00;95123.63;4920395;29;20452;-85
2022/12/01 00:12:16;;;;;;;3.07;1.83;;;;;;;4.53;100.00;95130.50;4920005;29;20971;-86
2022/12/01 00:14:53;;;;;;;1.80;1.70;;;;;;;4.71;100.00;95131.22;4920320;29;20444;-86
2022/12/01 00:17:20;;;;;;;2.50;2.30;;;;;;;4.62;100.00;95135.16;4920279;29;20469;-86
2022/12/01 00:19:47;;;;;;;1.90;1.70;;;;;;;4.81;100.00;95132.34;4919907;29;20448;-86
2022/12/01 00:22:13;;;;;;;1.57;1.47;;;;;;;4.67;100.00;95134.91;4919947;29;20459;-85
2022/12/01 00:24:40;;;;;;;1.87;1.77;;;;;;;4.76;100.00;95128.34;4919660;29;20986;-85
2022/12/01 00:27:07;;;;;;;1.63;1.53;;;;;;;4.81;100.00;95128.91;4919695;29;20463;-84
2022/12/01 00:29:34;;;;;;;2.40;1.20;;;;;;;4.82;100.00;95128.81;4919502;29;20448;-86
2022/12/01 00:32:02;;;;;;;1.70;1.60;;;;;;;4.68;100.00;95127.94;4919728;29;20467;-85
2022/12/01 00:34:29;;;;;;;2.17;1.50;;;;;;;4.73;100.00;95125.91;4919400;29;20957;-85
2022/12/01 00:36:56;;;;;;;2.70;1.80;;;;;;;4.68;100.00;95126.19;4919663;29;20450;-86
2022/12/01 00:39:23;;;;;;;1.97;1.47;;;;;;;4.57;100.00;95119.00;4919702;29;20447;-86
2022/12/01 00:41:50;;;;;;;1.90;1.70;;;;;;;4.67;100.00;95124.53;4919949;29;20464;-87
2022/12/01 00:44:17;;;;;;;2.70;1.77;;;;;;;4.63;100.00;95117.84;4919532;29;20460;-86
2022/12/01 00:46:44;;;;;;;1.67;1.57;;;;;;;4.66;100.00;95125.44;4919241;29;20488;-87
2022/12/01 00:49:14;;;;;;;1.77;1.50;;;;;;;4.57;100.00;95123.34;4919975;29;20460;-85
2022/12/01 00:51:41;;;;;;;2.50;1.53;;;;;;;4.51;100.00;95115.91;4919192;29;20443;-87
2022/12/01 00:54:08;;;;;;;2.20;2.00;;;;;;;4.53;100.00;95127.06;4919286;29;20460;-87
2022/12/01 00:56:35;;;;;;;1.70;1.60;;;;;;;4.55;100.00;95122.59;4918568;29;20460;-86
2022/12/01 00:59:02;;;;;;;1.60;1.30;;;;;;;4.49;100.00;95117.78;4918799;29;20519;-87
2022/12/01 01:01:29;;;;;;;2.00;1.90;;;;;;;4.49;100.00;95117.78;4919047;29;20448;-86
2022/12/01 01:03:56;;;;;;;5.10;1.30;;;;;;;4.57;100.00;95120.75;4919487;29;20456;-87
2022/12/01 01:06:24;;;;;;;3.03;1.87;;;;;;;4.51;100.00;95111.56;4919082;29;20503;-87
2022/12/01 01:08:51;;;;;;;1.40;1.30;;;;;;;4.52;100.00;95109.78;4919301;29;20496;-87
2022/12/01 01:11:21;;;;;;;1.40;1.30;;;;;;;4.59;100.00;95113.72;4918818;29;20453;-86
2022/12/01 01:13:48;;;;;;;1.87;1.67;;;;;;;4.65;100.00;95116.81;4918424;29;20452;-86
2022/12/01 01:16:17;;;;;;;1.70;1.60;;;;;;;4.56;100.00;95112.13;4919072;29;20869;-87
2022/12/01 01:18:44;;;;;;;1.90;1.80;;;;;;;4.56;100.00;95108.69;4918748;29;20531;-87
2022/12/01 01:21:15;;;;;;;1.60;1.50;;;;;;;4.59;100.00;95103.31;4918124;29;20452;-87
2022/12/01 01:23:43;;;;;;;1.70;1.60;;;;;;;4.65;100.00;95105.56;4918597;29;20455;-87
2022/12/01 01:26:12;;;;;;;2.20;2.00;;;;;;;4.66;100.00;95099.44;4918968;29;20499;-85
2022/12/01 01:35:32;;;;;;;3.13;2.83;;;;;;;4.57;100.00;95105.16;4918025;29;20468;-86
2022/12/01 01:37:59;;;;;;;4.47;2.60;;;;;;;4.60;100.00;95092.00;4918345;29;20452;-87
2022/12/01 01:40:27;;;;;;;4.50;2.73;;;;;;;4.65;100.00;95100.38;4918331;29;20919;-86
2022/12/01 01:42:55;;;;;;;3.93;1.87;;;;;;;4.71;100.00;95083.59;4918434;29;20537;-86
2022/12/01 01:45:23;;;;;;;2.27;2.07;;;;;;;4.88;100.00;95088.59;4917842;29;20971;-85
2022/12/01 01:47:52;;;;;;;2.30;2.10;;;;;;;4.82;100.00;95086.38;4917813;29;20943;-85
2022/12/01 01:50:40;;;;;;;2.17;1.57;;;;;;;4.85;100.00;95084.44;4917445;29;20460;-86
2022/12/01 01:53:10;;;;;;;1.70;1.60;;;;;;;4.90;100.00;95082.38;4878567;29;20472;-85
2022/12/01 01:55:39;;;;;;;1.47;1.37;;;;;;;4.76;100.00;95090.19;4878263;29;20458;-86
2022/12/01 01:58:09;;;;;;;1.50;1.40;;;;;;;4.70;100.00;95082.75;4878800;29;20912;-85
2022/12/01 02:00:38;;;;;;;1.60;1.37;;;;;;;4.65;100.00;95084.78;4878749;29;20519;-86
2022/12/01 02:03:05;;;;;;;1.20;1.10;;;;;;;4.61;100.00;95086.69;4878746;29;20466;-85
2022/12/01 02:05:34;;;;;;;2.03;1.43;;;;;;;4.59;100.00;95080.75;4878500;29;20478;-85
2022/12/01 02:08:02;;;;;;;1.30;1.20;;;;;;;4.57;100.00;95076.56;4878676;29;20480;-86
2022/12/01 02:10:49;;;;;;;1.23;1.13;;;;;;;4.62;100.00;95074.53;4885664;29;20448;-86
2022/12/01 02:13:22;;;;;;;1.53;1.40;;;;;;;4.61;100.00;95070.28;4917980;29;20449;-86
2022/12/01 02:16:01;;;;;;;1.60;1.50;;;;;;;4.55;100.00;95081.03;4918232;29;20440;-86
2022/12/01 02:18:38;;;;;;;1.30;1.20;;;;;;;4.51;100.00;95069.97;4918436;29;20458;-86
2022/12/01 02:21:24;;;;;;;1.50;1.40;;;;;;;4.54;100.00;95071.56;4918079;29;20959;-86
2022/12/01 02:24:21;;;;;;;1.40;1.30;;;;;;;4.63;100.00;95071.88;4859764;29;20871;-85
2022/12/01 02:26:53;;;;;;;1.80;1.33;;;;;;;4.62;100.00;95067.59;4859723;29;20489;-86
2022/12/01 02:29:45;;;;;;;1.60;1.50;;;;;;;4.64;100.00;95065.75;4859628;29;20454;-85
2022/12/01 02:32:24;;;;;;;1.40;1.30;;;;;;;4.71;100.00;95065.38;4786863;30;20458;-86
2022/12/01 02:35:01;;;;;;;1.50;1.40;;;;;;;4.74;100.00;95063.44;4787043;30;20518;-85
2022/12/01 02:37:33;;;;;;;1.50;1.23;;;;;;;4.61;100.00;95062.47;4786734;30;20465;-86
2022/12/01 02:40:12;;;;;;;4.17;1.63;;;;;;;4.57;100.00;95056.63;4787119;30;20442;-86
2022/12/01 02:42:52;;;;;;;2.30;2.10;;;;;;;4.57;100.00;95061.00;4786354;30;21048;-86
2022/12/01 02:58:52;;;;;;;1.40;1.30;;;;;;;4.52;100.00;95056.06;4786693;30;20434;-85
2022/12/01 03:01:37;;;;;;;1.30;1.20;;;;;;;4.49;100.00;95052.81;4833854;29;20493;-85
2022/12/01 03:04:24;;;;;;;1.40;1.30;;;;;;;4.48;100.00;95057.19;4863305;29;20998;-85
2022/12/01 03:06:58;;;;;;;1.30;1.20;;;;;;;4.45;100.00;95059.13;4863376;29;20578;-86
2022/12/01 03:16:16;;;;;;;2.50;1.70;;;;;;;4.56;100.00;95061.91;4920265;29;20491;-86
2022/12/01 03:18:51;;;;;;;1.33;1.23;;;;;;;4.61;100.00;95065.06;4921631;29;20823;-86
2022/12/01 03:21:24;;;;;;;1.50;1.40;;;;;;;4.57;100.00;95058.38;4921299;29;20447;-87
2022/12/01 03:23:54;;;;;;;1.30;1.20;;;;;;;4.56;100.00;95059.31;4920993;29;20440;-86
2022/12/01 03:27:12;;;;;;;1.50;1.40;;;;;;;4.64;100.00;95062.31;4921204;29;20491;-85
2022/12/01 03:29:42;;;;;;;2.30;1.50;;;;;;;4.60;100.00;95063.41;4920945;29;20455;-86
2022/12/01 03:32:14;;;;;;;1.50;1.27;;;;;;;4.61;100.00;95058.13;4920948;29;20809;-86
2022/12/01 03:34:45;;;;;;;1.60;1.50;;;;;;;4.64;100.00;95057.13;4920942;29;20444;-86
2022/12/01 03:40:32;;;;;;;1.80;1.40;;;;;;;4.51;100.00;95051.78;4881107;29;20481;-86
2022/12/01 03:43:03;;;;;;;1.50;1.40;;;;;;;4.37;100.00;95056.97;4881150;29;20462;-86
2022/12/01 03:45:35;;;;;;;10.50;1.60;;;;;;;4.43;100.00;95060.97;4881263;29;20438;-86
2022/12/01 03:48:03;;;;;;;1.60;1.50;;;;;;;4.43;100.00;95060.97;4881138;29;20433;-86
2022/12/01 03:50:38;;;;;;;1.47;1.33;;;;;;;4.39;100.00;95062.91;4881103;29;20456;-86
2022/12/01 03:53:10;;;;;;;1.50;1.40;;;;;;;4.43;100.00;95055.78;4881064;29;20445;-84
2022/12/01 03:55:40;;;;;;;1.43;1.33;;;;;;;4.38;100.00;95060.41;4880796;29;20995;-86
2022/12/01 03:58:12;;;;;;;1.60;1.50;;;;;;;4.35;100.00;95058.81;4881071;29;20453;-86
2022/12/01 04:00:40;;;;;;;1.30;1.20;;;;;;;4.23;100.00;95055.16;4881095;29;20464;-86
2022/12/01 04:03:08;;;;;;;1.37;1.27;;;;;;;4.30;100.00;95058.22;4880984;29;20493;-87
2022/12/01 04:05:35;;;;;;;1.73;1.63;;;;;;;4.21;100.00;95046.63;4881106;29;20465;-86
2022/12/01 04:08:02;;;;;;;1.40;1.30;;;;;;;4.21;100.00;95054.41;4881184;29;20450;-87
2022/12/01 04:10:29;;;;;;;1.50;1.40;;;;;;;4.14;100.00;95047.91;4893423;29;20477;-86
2022/12/01 04:12:58;;;;;;;3.33;1.53;;;;;;;4.18;100.00;95044.19;4919849;29;20513;-86
2022/12/01 04:15:26;;;;;;;1.57;1.47;;;;;;;4.15;100.00;95065.16;4920507;29;20456;-87
2022/12/01 04:17:53;;;;;;;1.30;1.20;;;;;;;4.14;100.00;95057.44;4921209;29;20463;-87
2022/12/01 04:20:21;;;;;;;2.30;1.70;;;;;;;4.17;100.00;95059.88;4920730;29;20452;-88
2022/12/01 04:22:49;;;;;;;2.10;1.70;;;;;;;4.21;100.00;95064.78;4920749;29;20487;-88
2022/12/01 04:25:16;;;;;;;1.37;1.27;;;;;;;4.03;100.00;95066.66;4920749;29;20487;-88
2022/12/01 04:27:43;;;;;;;2.17;2.07;;;;;;;4.04;100.00;95062.31;4920592;29;20484;-86
2022/12/01 04:30:11;;;;;;;6.87;5.10;;;;;;;4.06;100.00;95063.09;4920861;29;20828;-86
2022/12/01 04:32:39;;;;;;;3.00;2.80;;;;;;;3.98;100.00;95060.06;4920040;29;20798;-86
2022/12/01 04:35:07;;;;;;;2.13;1.90;;;;;;;3.99;100.00;95057.38;4920802;29;20464;-87
2022/12/01 04:37:35;;;;;;;2.00;1.90;;;;;;;4.02;100.00;95064.16;4919947;29;20455;-86
2022/12/01 04:40:02;;;;;;;3.90;2.90;;;;;;;4.03;100.00;95063.22;4887287;29;20439;-88
2022/12/01 04:42:29;;;;;;;4.20;3.60;;;;;;;4.14;100.00;95067.84;4919853;29;20204;-84
2022/12/01 04:44:56;;;;;;;2.93;2.30;;;;;;;4.19;100.00;95068.41;4920118;29;20455;-85
2022/12/01 04:47:23;;;;;;;3.80;3.43;;;;;;;3.98;100.00;95063.50;4920336;29;20516;-87
2022/12/01 04:49:50;;;;;;;3.80;3.00;;;;;;;4.09;100.00;95057.72;4921023;29;20447;-89
2022/12/01 04:52:17;;;;;;;3.40;1.97;;;;;;;3.93;100.00;95056.91;4920171;29;20529;-86
2022/12/01 04:54:45;;;;;;;1.83;1.73;;;;;;;3.98;100.00;95060.91;4919591;29;20511;-86
2022/12/01 04:57:12;;;;;;;2.10;2.00;;;;;;;3.91;100.00;95061.34;4919802;29;20456;-85
2022/12/01 04:59:42;;;;;;;1.50;1.40;;;;;;;3.84;100.00;95070.41;4920911;29;20448;-92
2022/12/01 05:02:09;;;;;;;2.50;1.67;;;;;;;3.88;100.00;95066.72;4919729;29;20447;-85
2022/12/01 05:04:37;;;;;;;2.17;1.97;;;;;;;3.88;100.00;95061.50;4919959;29;20440;-87
2022/12/01 05:07:04;;;;;;;3.50;2.20;;;;;;;3.79;100.00;95062.88;4929799;29;20510;-87
2022/12/01 05:09:31;;;;;;;2.00;1.90;;;;;;;3.88;100.00;95064.13;4930731;29;20459;-84
2022/12/01 05:11:59;;;;;;;3.90;3.57;;;;;;;3.77;100.00;95062.13;4931523;29;20482;-86
2022/12/01 05:14:26;;;;;;;2.17;1.97;;;;;;;3.81;100.00;95067.97;4932442;29;20464;-86
2022/12/01 05:16:54;;;;;;;2.00;1.83;;;;;;;3.79;100.00;95070.66;4925551;29;20544;-87
2022/12/01 05:22:05;;;;;;;1.90;1.80;;;;;;;3.68;100.00;95073.81;4932012;29;20452;-86
2022/12/01 05:24:32;;;;;;;3.40;1.70;;;;;;;3.74;100.00;95075.25;4929072;29;20468;-87
2022/12/01 05:27:01;;;;;;;1.97;1.67;;;;;;;3.70;100.00;95068.56;4932772;29;20483;-87
2022/12/01 05:29:27;;;;;;;2.07;1.87;;;;;;;3.74;100.00;95078.69;4924933;29;20458;-87
2022/12/01 05:31:54;;;;;;;3.90;2.10;;;;;;;3.74;100.00;95073.47;4918567;29;20455;-86
2022/12/01 05:34:21;;;;;;;2.53;2.33;;;;;;;3.88;100.00;95066.72;4918384;29;20456;-86
2022/12/01 05:36:48;;;;;;;2.50;1.70;;;;;;;3.84;100.00;95075.59;4919520;29;20856;-87
2022/12/01 05:39:15;;;;;;;5.03;3.07;;;;;;;3.89;100.00;95068.38;4917851;29;20452;-85
2022/12/01 05:41:42;;;;;;;1.70;1.60;;;;;;;3.90;100.00;95076.06;4919522;29;20543;-87
2022/12/01 05:44:11;;;;;;;2.13;1.93;;;;;;;3.92;100.00;95073.41;4918534;29;20451;-86
2022/12/01 05:46:38;;;;;;;2.30;2.10;;;;;;;3.91;100.00;95077.75;4918964;29;20499;-87
2022/12/01 05:49:06;;;;;;;2.90;2.60;;;;;;;3.92;100.00;95078.59;4919423;29;20450;-88
2022/12/01 05:51:32;;;;;;;2.67;2.37;;;;;;;3.89;100.00;95078.75;4919126;29;20204;-85
2022/12/01 05:54:00;;;;;;;2.27;2.17;;;;;;;3.78;100.00;95071.59;4919387;29;20447;-87
2022/12/01 05:59:50;;;;;;;2.90;2.50;;;;;;;3.92;100.00;95084.63;4917594;29;20942;-87
2022/12/01 06:02:17;;;;;;;4.07;3.53;;;;;;;3.95;100.00;95081.00;4918890;29;20460;-87
2022/12/01 06:04:44;;;;;;;2.97;2.50;;;;;;;3.85;100.00;95090.25;4918392;29;20459;-87
2022/12/01 06:07:11;;;;;;;5.53;3.87;;;;;;;3.98;100.00;95088.63;4918497;29;20890;-90
2022/12/01 06:09:38;;;;;;;2.37;2.17;;;;;;;3.85;100.00;95092.84;4918644;29;20994;-91
2022/12/01 06:12:05;;;;;;;2.60;2.40;;;;;;;3.85;100.00;95093.66;4918018;29;20479;-87
2022/12/01 06:14:32;;;;;;;2.57;2.23;;;;;;;3.80;100.00;95100.88;4918665;29;20452;-85
2022/12/01 06:17:01;;;;;;;4.90;1.90;;;;;;;3.69;100.00;95091.06;4918625;29;20533;-85
2022/12/01 06:19:27;;;;;;;1.90;1.80;;;;;;;3.71;100.00;95091.81;4918386;29;20459;-87
2022/12/01 06:21:54;;;;;;;3.33;3.00;;;;;;;3.76;100.00;95091.59;4918283;29;20947;-83
2022/12/01 06:24:21;;;;;;;4.15;2.72;;;;;;;3.67;100.00;95087.72;4917310;29;20510;-85
2022/12/01 06:26:48;;;;;;;3.00;1.93;;;;;;;3.66;100.00;95104.22;4918289;29;20344;-88
2022/12/01 06:29:15;;;;;;;3.13;2.10;;;;;;;3.64;100.00;95093.09;4918579;29;20464;-88
2022/12/01 06:31:42;;;;;;;3.03;2.83;;;;;;;3.64;100.00;95089.66;4918432;29;20463;-88
2022/12/01 06:34:16;;;;;;;2.30;2.10;;;;;;;3.71;100.00;95085.78;4918581;29;20460;-88
2022/12/01 06:36:43;;;;;;;2.27;1.90;;;;;;;3.62;100.00;95087.16;4918324;29;20464;-89
2022/12/01 06:39:10;;;;;;;2.97;2.67;;;;;;;3.70;100.00;95090.16;4918798;29;20823;-88
2022/12/01 06:41:37;;;;;;;2.20;2.00;;;;;;;3.70;100.00;95081.53;4918689;29;20460;-87
2022/12/01 06:44:04;;;;;;;3.37;2.90;;;;;;;3.68;100.00;95084.22;4918194;29;20464;-87
2022/12/01 06:46:31;;;;;;;2.97;2.77;;;;;;;3.65;100.00;95081.78;4917212;29;20460;-89
2022/12/01 06:48:58;;;;;;;5.70;2.20;;;;;;;3.68;100.00;95079.03;4917721;29;20469;-89
2022/12/01 06:51:27;;;;;;;2.40;2.20;;;;;;;3.76;100.00;95088.13;4917467;29;20451;-88
2022/12/01 06:53:55;;;;;;;2.40;2.17;;;;;;;3.82;100.00;95093.00;4917412;29;20986;-89
2022/12/01 06:56:22;;;;;;;2.73;2.20;;;;;;;3.78;100.00;95091.50;4916891;29;20470;-89
2022/12/01 06:58:49;;;;;;;2.10;1.87;;;;;;;3.78;100.00;95091.50;4917181;29;20452;-89
2022/12/01 07:01:17;;;;;;;3.47;1.70;;;;;;;3.75;100.00;95084.69;4917394;29;20459;-89
2022/12/01 07:03:47;;;;;;;5.97;1.90;;;;;;;3.77;100.00;95084.66;4916841;29;20460;-88
2022/12/01 07:06:14;;;;;;;2.57;2.33;;;;;;;3.81;100.00;95096.53;4917137;29;20464;-89
2022/12/01 07:08:43;;;;;;;3.63;2.30;;;;;;;3.83;100.00;95092.09;4916612;29;20491;-89
2022/12/01 07:11:12;;;;;;;2.77;2.57;;;;;;;3.85;100.00;95098.88;4917287;29;20460;-88
2022/12/01 07:13:40;;;;;;;3.37;3.03;;;;;;;3.88;100.00;95092.66;4917202;29;20452;-88
2022/12/01 07:16:08;;;;;;;3.60;2.50;;;;;;;3.92;100.00;95099.34;4917016;29;20460;-88
2022/12/01 07:18:54;;;;;;;5.50;2.90;;;;;;;3.90;100.00;95102.03;4877140;29;20434;-88
2022/12/01 07:21:22;;;;;;;2.13;1.93;;;;;;;3.78;100.00;95104.50;4877485;29;20465;-88
2022/12/01 07:23:54;;;;;;;2.87;2.67;;;;;;;3.91;100.00;95106.31;4877003;29;20466;-88
2022/12/01 07:26:21;;;;;;;4.30;2.03;;;;;;;3.85;100.00;95100.63;4876660;29;20485;-88
2022/12/01 07:28:48;;;;;;;6.57;2.43;;;;;;;3.83;100.00;95097.28;4876358;29;20604;-88
2022/12/01 07:31:17;;;;;;;6.10;3.30;;;;;;;3.83;100.00;95102.47;4876970;29;20618;-88
2022/12/01 07:33:44;;;;;;;7.70;4.60;;;;;;;3.81;100.00;95104.31;4876922;29;21019;-89
2022/12/01 07:36:12;;;;;;;3.30;3.00;;;;;;;3.83;100.00;95105.06;4881828;29;21001;-88
2022/12/01 07:38:40;;;;;;;8.47;3.60;;;;;;;3.74;100.00;95106.38;4916710;29;20462;-88
2022/12/01 07:41:10;;;;;;;3.30;1.97;;;;;;;3.66;100.00;95104.22;4916487;29;20460;-88
2022/12/01 07:43:37;;;;;;;3.63;3.33;;;;;;;3.64;100.00;95108.66;4916297;29;20452;-89
2022/12/01 07:46:07;;;;;;;1.83;1.60;;;;;;;3.72;100.00;95103.03;4916457;29;20500;-88
2022/12/01 07:48:34;;;;;;;1.90;1.80;;;;;;;3.79;100.00;95099.22;4920312;29;20511;-88
2022/12/01 07:51:01;;;;;;;2.40;2.00;;;;;;;3.80;100.00;95108.66;4920298;29;20470;-89
2022/12/01 07:53:28;;;;;;;5.67;2.13;;;;;;;3.80;100.00;95110.44;4920304;29;20447;-90
2022/12/01 07:55:55;;;;;;;2.67;2.47;;;;;;;3.79;100.00;95112.19;4920865;29;20454;-89
2022/12/01 07:58:24;;;;;;;3.73;3.43;;;;;;;3.68;100.00;95111.91;4920148;29;20468;-88
2022/12/01 08:00:50;;;;;;;2.07;1.70;;;;;;;3.70;100.00;95110.91;4920382;29;20823;-88
2022/12/01 08:03:17;;;;;;;6.60;3.20;;;;;;;3.74;100.00;95106.38;4919684;29;20460;-87
2022/12/01 08:05:44;;;;;;;1.87;1.67;;;;;;;3.72;100.00;95114.25;4920001;29;20455;-88
2022/12/01 08:08:11;;;;;;;4.17;2.80;;;;;;;3.77;100.00;95108.00;4920114;29;20487;-89
2022/12/01 08:10:38;;;;;;;2.67;1.60;;;;;;;3.81;100.00;95106.91;4920121;29;20455;-89
2022/12/01 08:13:05;;;;;;;2.27;2.07;;;;;;;3.91;100.00;95106.31;4919724;29;20451;-88
2022/12/01 08:15:33;;;;;;;2.87;2.60;;;;;;;3.86;100.00;95105.72;4920039;29;20463;-89
2022/12/01 08:18:02;;;;;;;5.40;3.40;;;;;;;3.86;100.00;95097.94;4919694;29;20463;-88
2022/12/01 08:20:29;;;;;;;2.73;2.07;;;;;;;3.88;100.00;95108.25;4919653;29;20460;-89
2022/12/01 08:22:56;;;;;;;4.40;2.70;;;;;;;3.85;100.00;95105.81;4919667;29;20460;-88
2022/12/01 08:25:23;;;;;;;3.27;2.60;;;;;;;3.92;100.00;95107.16;4919744;29;20484;-89
2022/12/01 08:27:50;;;;;;;3.97;2.23;;;;;;;3.82;100.00;95113.78;4919370;29;21003;-89
2022/12/01 08:30:17;;;;;;;3.10;2.13;;;;;;;3.83;100.00;95112.84;4919429;29;20470;-89
2022/12/01 08:32:45;;;;;;;2.50;2.30;;;;;;;3.88;100.00;95103.03;4919435;29;20463;-89
2022/12/01 08:35:12;;;;;;;3.20;1.60;;;;;;;3.90;100.00;95107.22;4919568;29;20452;-89
2022/12/01 08:37:39;;;;;;;4.40;3.00;;;;;;;3.96;100.00;95106.03;4919050;29;20455;-89
2022/12/01 08:40:07;;;;;;;1.40;1.30;;;;;;;3.89;100.00;95115.09;4919247;29;20467;-89
2022/12/01 08:42:34;;;;;;;4.90;2.60;;;;;;;3.77;100.00;95101.06;4919596;29;20486;-90
2022/12/01 08:45:01;;;;;;;2.43;2.23;;;;;;;3.98;100.00;95099.00;4919151;29;20464;-88
2022/12/01 08:47:28;;;;;;;1.90;1.73;;;;;;;3.94;100.00;95113.09;4919167;29;20483;-88
2022/12/01 08:49:57;;;;;;;7.30;4.40;;;;;;;3.99;100.00;95117.09;4919398;29;20456;-88
2022/12/01 08:52:26;;;;;;;1.77;1.67;;;;;;;3.91;100.00;95102.88;4918908;29;20467;-87
2022/12/01 08:54:53;;;;;;;4.80;4.17;;;;;;;3.94;100.00;95107.91;4919383;29;20452;-89
2022/12/01 08:57:20;;;;;;;3.33;2.60;;;;;;;3.84;100.00;95106.75;4918873;29;20463;-88
2022/12/01 08:59:48;;;;;;;2.90;2.33;;;;;;;3.89;100.00;95096.94;4918244;29;20534;-89
2022/12/01 09:02:17;;;;;;;3.27;2.20;;;;;;;3.92;100.00;95099.34;4919163;29;20880;-89
2022/12/01 09:04:44;;;;;;;2.00;1.80;;;;;;;3.99;100.00;95098.09;4919099;29;20460;-88
2022/12/01 09:07:17;;;;;;;1.30;1.20;;;;;;;3.86;100.00;95091.91;4918935;29;20495;-88
2022/12/01 09:09:45;;;;;;;2.30;2.10;;;;;;;3.93;100.00;95085.44;4918414;29;20452;-89
2022/12/01 09:12:13;;;;;;;2.10;1.90;;;;;;;3.94;100.00;95089.72;4918676;29;21052;-88
2022/12/01 09:14:41;;;;;;;1.20;1.10;;;;;;;3.96;100.00;95096.50;4918713;29;20459;-89
2022/12/01 09:17:09;;;;;;;4.83;2.63;;;;;;;3.96;100.00;95082.69;4918657;29;20467;-89
2022/12/01 09:19:36;;;;;;;2.10;1.97;;;;;;;3.91;100.00;95082.09;4918717;29;20460;-88
2022/12/01 09:22:03;;;;;;;2.60;2.27;;;;;;;3.97;100.00;95090.38;4918476;29;20460;-89
2022/12/01 09:24:31;;;;;;;1.40;1.27;;;;;;;4.00;100.00;95081.59;4918005;29;20460;-89
2022/12/01 09:26:59;;;;;;;2.53;2.30;;;;;;;3.97;100.00;95071.38;4918981;29;20463;-89
2022/12/01 09:29:26;;;;;;;1.60;1.50;;;;;;;4.02;100.00;95074.53;4918409;29;20480;-89
2022/12/01 09:31:56;;;;;;;1.53;1.43;;;;;;;4.02;100.00;95071.94;4918269;29;20462;-89
2022/12/01 09:34:23;;;;;;;1.60;1.37;;;;;;;4.01;100.00;95075.47;4918254;29;20902;-90
2022/12/01 09:36:50;;;;;;;2.03;1.93;;;;;;;4.08;100.00;95066.44;4918456;29;20463;-91
2022/12/01 09:39:19;;;;;;;1.60;1.50;;;;;;;4.09;100.00;95065.50;4918770;29;20460;-89
2022/12/01 09:41:52;;;;;;;2.53;2.33;;;;;;;4.02;100.00;95074.53;4918755;29;20463;-89
2022/12/01 09:44:30;;;;;;;2.00;1.63;;;;;;;4.00;100.00;95068.59;4918507;29;20456;-90
2022/12/01 09:47:00;;;;;;;2.70;2.50;;;;;;;3.96;100.00;95067.09;4918086;29;20466;-87
2022/12/01 09:49:40;;;;;;;2.07;1.97;;;;;;;3.96;100.00;95065.34;4917583;29;20994;-87
2022/12/01 09:52:11;;;;;;;2.13;2.00;;;;;;;4.04;100.00;95057.13;4918165;29;20471;-87
2022/12/01 09:54:38;;;;;;;3.27;2.37;;;;;;;3.95;100.00;95062.84;4918041;29;20458;-88
2022/12/01 09:57:06;;;;;;;2.90;1.33;;;;;;;3.96;100.00;95056.72;4917914;29;20459;-87
2022/12/01 09:59:41;;;;;;;1.57;1.30;;;;;;;3.96;100.00;95054.97;4917862;29;20467;-88
2022/12/01 10:02:26;;;;;;;5.30;1.70;;;;;;;4.00;100.00;95050.44;4917473;29;20942;-87
2022/12/01 10:04:56;;;;;;;4.67;2.40;;;;;;;4.02;100.00;95049.41;4917801;29;20814;-87
2022/12/01 10:07:29;;;;;;;2.17;1.97;;;;;;;4.15;100.00;95046.13;4917676;29;20459;-88
2022/12/01 10:09:58;;;;;;;4.00;1.63;;;;;;;4.21;100.00;95044.03;4917248;29;20456;-88
2022/12/01 10:12:31;;;;;;;2.80;2.43;;;;;;;4.14;100.00;95037.50;4917656;29;20455;-88
2022/12/01 10:15:13;;;;;;;2.40;2.17;;;;;;;4.07;100.00;95041.41;4917344;29;20490;-89
2022/12/01 10:17:51;;;;;;;3.00;1.80;;;;;;;4.13;100.00;95040.19;4918100;29;20444;-88
2022/12/01 10:20:25;;;;;;;2.13;1.93;;;;;;;4.12;100.00;95036.78;4917700;29;20471;-87
2022/12/01 10:23:18;;;;;;;2.50;2.30;;;;;;;4.14;100.00;95036.69;4917370;29;20467;-88
2022/12/01 10:25:55;;;;;;;2.33;1.93;;;;;;;4.18;100.00;95041.59;4917809;29;20491;-87
2022/12/01 10:29:00;;;;;;;2.43;1.63;;;;;;;4.19;100.00;95037.25;4917465;29;20523;-88
2022/12/01 10:31:35;;;;;;;2.40;1.30;;;;;;;4.11;100.00;95027.31;4917389;29;20459;-89
2022/12/01 10:34:06;;;;;;;2.57;1.63;;;;;;;4.09;100.00;95034.34;4917406;29;20470;-87
2022/12/01 10:36:34;;;;;;;4.10;2.93;;;;;;;4.04;100.00;95041.53;4917480;29;20515;-88
2022/12/01 10:39:02;;;;;;;4.20;3.90;;;;;;;4.07;100.00;95031.00;4917602;29;20452;-89
2022/12/01 10:41:32;;;;;;;13.50;2.20;;;;;;;4.09;100.00;95034.34;4917189;29;20470;-89
2022/12/01 10:44:04;;;;;;;3.43;2.73;;;;;;;4.07;100.00;95036.19;4917539;29;20459;-87
2022/12/01 10:46:40;;;;;;;2.07;1.97;;;;;;;3.99;100.00;95033.19;4917340;29;20468;-88
2022/12/01 10:49:11;;;;;;;4.33;2.63;;;;;;;3.98;100.00;95028.91;4917096;29;20487;-89
2022/12/01 10:51:51;;;;;;;4.20;2.63;;;;;;;4.09;100.00;95023.97;4917692;29;20459;-87
2022/12/01 10:54:18;;;;;;;1.90;1.80;;;;;;;4.09;100.00;95026.56;4916922;29;20456;-88
2022/12/01 10:56:48;;;;;;;4.97;2.47;;;;;;;4.17;100.00;95026.94;4916986;29;20455;-87
2022/12/01 10:59:28;;;;;;;2.77;2.57;;;;;;;4.09;100.00;95020.53;4916863;29;20463;-88
2022/12/01 11:01:57;;;;;;;3.60;2.63;;;;;;;4.27;100.00;95028.06;4917135;29;20872;-88
2022/12/01 11:04:45;;;;;;;2.80;2.03;;;;;;;4.08;100.00;95017.09;4916595;29;20540;-90
2022/12/01 11:07:22;;;;;;;2.07;1.90;;;;;;;4.21;100.00;95015.44;4916606;29;20466;-87
2022/12/01 11:10:02;;;;;;;1.63;1.43;;;;;;;4.16;100.00;95020.09;4916925;29;20487;-89
2022/12/01 11:12:29;;;;;;;5.27;2.37;;;;;;;4.19;100.00;95025.09;4916608;29;20448;-87
2022/12/01 11:14:58;;;;;;;2.70;2.50;;;;;;;4.40;100.00;95017.81;4916933;29;20452;-87
2022/12/01 11:17:37;;;;;;;4.03;3.60;;;;;;;4.25;100.00;95021.31;4917094;29;20467;-89
2022/12/01 11:20:35;;;;;;;8.07;5.23;;;;;;;4.24;100.00;95023.06;4917231;29;20837;-88
2022/12/01 11:23:24;;;;;;;2.93;2.67;;;;;;;4.19;100.00;95014.72;4842782;29;20464;-88
2022/12/01 11:26:01;;;;;;;2.90;2.10;;;;;;;4.09;100.00;95007.53;4844180;29;21082;-89
2022/12/01 11:28:28;;;;;;;3.80;2.40;;;;;;;4.10;100.00;95020.44;4844988;29;20879;-88
2022/12/01 11:30:58;;;;;;;4.23;2.60;;;;;;;4.06;100.00;95021.53;4844186;29;20459;-89
2022/12/01 11:33:26;;;;;;;6.73;6.03;;;;;;;3.95;100.00;95011.75;4844437;29;20463;-89
2022/12/01 11:35:54;;;;;;;42.10;29.40;;;;;;;3.96;100.00;95010.81;4844016;29;20473;-89
2022/12/01 11:38:23;;;;;;;5.20;4.13;;;;;;;3.89;100.00;95014.69;4844238;29;20467;-88
2022/12/01 11:40:52;;;;;;;7.40;5.80;;;;;;;4.04;100.00;95016.41;4844119;29;20803;-88
2022/12/01 11:43:25;;;;;;;16.20;10.17;;;;;;;4.01;100.00;95010.56;4844213;29;20467;-89
2022/12/01 11:45:54;;;;;;;6.87;4.23;;;;;;;4.00;100.00;95012.31;4843848;29;20484;-87
2022/12/01 11:48:26;;;;;;;5.87;3.33;;;;;;;3.93;100.00;95005.81;4843827;29;20487;-88
2022/12/01 11:51:28;;;;;;;6.73;4.87;;;;;;;3.94;100.00;95014.44;4843838;29;20456;-88
2022/12/01 11:54:16;;;;;;;6.37;4.17;;;;;;;3.93;100.00;95008.41;4843871;29;20462;-89
2022/12/01 11:56:44;;;;;;;3.83;2.90;;;;;;;3.95;100.00;95003.13;4867350;29;20455;-87
2022/12/01 11:59:15;;;;;;;5.70;5.30;;;;;;;3.88;100.00;95018.22;4920633;29;20471;-89
2022/12/01 12:02:15;;;;;;;13.23;3.87;;;;;;;3.84;100.00;95015.91;4920128;29;20460;-88
2022/12/01 12:05:02;;;;;;;2.23;2.03;;;;;;;3.77;100.00;95007.63;4920110;29;20467;-90
2022/12/01 12:07:42;;;;;;;3.57;2.97;;;;;;;3.89;100.00;95011.28;4921103;29;20794;-89
2022/12/01 12:10:28;;;;;;;2.50;2.30;;;;;;;3.86;100.00;95006.25;4920854;29;20487;-89
2022/12/01 12:13:08;;;;;;;3.47;3.17;;;;;;;3.90;100.00;95011.19;4924007;29;20455;-87
2022/12/01 12:15:47;;;;;;;2.53;2.33;;;;;;;3.88;100.00;95012.19;4937894;29;20451;-86
2022/12/01 12:18:33;;;;;;;2.87;2.57;;;;;;;3.98;100.00;95005.53;4938033;29;20436;-85
2022/12/01 12:21:15;;;;;;;3.37;3.07;;;;;;;3.91;100.00;95009.44;4938755;29;20436;-85
2022/12/01 12:24:01;;;;;;;2.10;2.00;;;;;;;3.89;100.00;95001.72;4937585;29;20452;-85
2022/12/01 12:26:31;;;;;;;3.10;2.80;;;;;;;3.90;100.00;95012.94;4937473;29;20487;-86
2022/12/01 12:29:17;;;;;;;2.90;2.50;;;;;;;3.93;100.00;95017.97;4905269;29;20611;-86
2022/12/01 12:31:57;;;;;;;4.60;2.27;;;;;;;3.77;100.00;95014.56;4937498;29;20427;-86